sensor_id;sensor_type;location;lat;lon;timestamp;P1;durP1;ratioP1;P2;durP2;ratioP2
8791;SDS011;4432;50.890;4.744;2023-01-19T00:00:17;13.67;;;7.60;;
8791;SDS011;4432;50.890;4.744;2023-01-19T00:02:43;11.27;;;6.17;;
8791;SDS011;4432;50.890;4.744;2023-01-19T00:05:11;10.70;;;7.07;;
8791;SDS011;4432;50.890;4.744;2023-01-19T00:07:38;13.83;;;6.77;;
8791;SDS011;4432;50.890;4.744;2023-01-19T00:10:04;9.73;;;6.97;;
8791;SDS011;4432;50.890;4.744;2023-01-19T00:12:30;9.97;;;7.60;;
8791;SDS011;4432;50.890;4.744;2023-01-19T00:14:57;10.50;;;6.73;;
8791;SDS011;4432;50.890;4.744;2023-01-19T00:17:23;11.80;;;6.37;;
8791;SDS011;4432;50.890;4.744;2023-01-19T00:19:49;10.10;;;7.33;;
8791;SDS011;4432;50.890;4.744;2023-01-19T00:22:14;13.40;;;7.37;;
8791;SDS011;4432;50.890;4.744;2023-01-19T00:24:40;12.20;;;7.40;;
8791;SDS011;4432;50.890;4.744;2023-01-19T00:27:06;10.37;;;6.30;;
8791;SDS011;4432;50.890;4.744;2023-01-19T00:29:32;11.83;;;6.60;;
8791;SDS011;4432;50.890;4.744;2023-01-19T00:31:59;12.17;;;7.23;;
8791;SDS011;4432;50.890;4.744;2023-01-19T00:34:25;10.23;;;5.73;;
8791;SDS011;4432;50.890;4.744;2023-01-19T00:36:51;10.40;;;7.50;;
8791;SDS011;4432;50.890;4.744;2023-01-19T00:39:17;14.33;;;6.00;;
8791;SDS011;4432;50.890;4.744;2023-01-19T00:41:42;11.60;;;6.50;;
8791;SDS011;4432;50.890;4.744;2023-01-19T00:44:27;11.73;;;7.03;;
8791;SDS011;4432;50.890;4.744;2023-01-19T00:46:53;13.90;;;6.97;;
8791;SDS011;4432;50.890;4.744;2023-01-19T00:49:19;15.77;;;7.27;;
8791;SDS011;4432;50.890;4.744;2023-01-19T00:51:44;9.30;;;6.27;;
8791;SDS011;4432;50.890;4.744;2023-01-19T00:54:10;12.23;;;7.10;;
8791;SDS011;4432;50.890;4.744;2023-01-19T00:56:36;12.00;;;7.43;;
8791;SDS011;4432;50.890;4.744;2023-01-19T00:59:02;15.23;;;7.10;;
8791;SDS011;4432;50.890;4.744;2023-01-19T01:01:29;10.97;;;7.43;;
8791;SDS011;4432;50.890;4.744;2023-01-19T01:03:55;9.93;;;7.17;;
8791;SDS011;4432;50.890;4.744;2023-01-19T01:06:21;11.53;;;7.30;;
8791;SDS011;4432;50.890;4.744;2023-01-19T01:08:46;10.27;;;6.73;;
8791;SDS011;4432;50.890;4.744;2023-01-19T01:11:12;13.70;;;8.23;;
8791;SDS011;4432;50.890;4.744;2023-01-19T01:13:38;19.57;;;7.47;;
8791;SDS011;4432;50.890;4.744;2023-01-19T01:16:04;11.87;;;7.17;;
8791;SDS011;4432;50.890;4.744;2023-01-19T01:18:32;16.37;;;8.27;;
8791;SDS011;4432;50.890;4.744;2023-01-19T01:21:01;14.20;;;7.77;;
8791;SDS011;4432;50.890;4.744;2023-01-19T01:23:27;12.43;;;6.20;;
8791;SDS011;4432;50.890;4.744;2023-01-19T01:25:53;17.07;;;7.77;;
8791;SDS011;4432;50.890;4.744;2023-01-19T01:28:19;10.07;;;7.13;;
8791;SDS011;4432;50.890;4.744;2023-01-19T01:30:45;13.93;;;7.50;;
8791;SDS011;4432;50.890;4.744;2023-01-19T01:33:11;11.07;;;6.60;;
8791;SDS011;4432;50.890;4.744;2023-01-19T01:35:37;13.67;;;8.10;;
8791;SDS011;4432;50.890;4.744;2023-01-19T01:38:03;14.47;;;7.23;;
8791;SDS011;4432;50.890;4.744;2023-01-19T01:40:29;19.60;;;7.70;;
8791;SDS011;4432;50.890;4.744;2023-01-19T01:42:55;11.47;;;7.17;;
8791;SDS011;4432;50.890;4.744;2023-01-19T01:45:29;16.90;;;7.67;;
8791;SDS011;4432;50.890;4.744;2023-01-19T01:48:05;15.30;;;8.53;;
8791;SDS011;4432;50.890;4.744;2023-01-19T01:50:34;11.33;;;6.83;;
8791;SDS011;4432;50.890;4.744;2023-01-19T01:53:25;13.90;;;8.40;;
8791;SDS011;4432;50.890;4.744;2023-01-19T01:55:53;9.97;;;6.50;;
8791;SDS011;4432;50.890;4.744;2023-01-19T01:58:19;10.40;;;6.80;;
8791;SDS011;4432;50.890;4.744;2023-01-19T02:00:49;15.93;;;6.60;;
8791;SDS011;4432;50.890;4.744;2023-01-19T02:03:33;10.47;;;6.30;;
8791;SDS011;4432;50.890;4.744;2023-01-19T02:06:00;12.07;;;7.87;;
8791;SDS011;4432;50.890;4.744;2023-01-19T02:08:36;11.63;;;6.57;;
8791;SDS011;4432;50.890;4.744;2023-01-19T02:11:41;12.93;;;7.80;;
8791;SDS011;4432;50.890;4.744;2023-01-19T02:14:26;12.13;;;7.33;;
8791;SDS011;4432;50.890;4.744;2023-01-19T02:16:52;16.50;;;7.67;;
8791;SDS011;4432;50.890;4.744;2023-01-19T02:19:23;16.20;;;7.20;;
8791;SDS011;4432;50.890;4.744;2023-01-19T02:21:58;14.07;;;6.83;;
8791;SDS011;4432;50.890;4.744;2023-01-19T02:24:30;13.77;;;6.43;;
8791;SDS011;4432;50.890;4.744;2023-01-19T02:26:56;8.77;;;6.47;;
8791;SDS011;4432;50.890;4.744;2023-01-19T02:29:23;8.60;;;5.37;;
8791;SDS011;4432;50.890;4.744;2023-01-19T02:31:50;14.90;;;6.43;;
8791;SDS011;4432;50.890;4.744;2023-01-19T02:34:18;14.87;;;6.87;;
8791;SDS011;4432;50.890;4.744;2023-01-19T02:39:19;13.60;;;6.67;;
8791;SDS011;4432;50.890;4.744;2023-01-19T02:41:54;11.23;;;6.27;;
8791;SDS011;4432;50.890;4.744;2023-01-19T02:44:25;9.47;;;5.87;;
8791;SDS011;4432;50.890;4.744;2023-01-19T02:46:53;10.60;;;6.03;;
8791;SDS011;4432;50.890;4.744;2023-01-19T02:49:19;10.63;;;6.37;;
8791;SDS011;4432;50.890;4.744;2023-01-19T02:51:45;13.80;;;6.17;;
8791;SDS011;4432;50.890;4.744;2023-01-19T03:02:40;9.83;;;5.83;;
8791;SDS011;4432;50.890;4.744;2023-01-19T03:05:45;13.57;;;6.67;;
8791;SDS011;4432;50.890;4.744;2023-01-19T03:08:30;13.40;;;7.10;;
8791;SDS011;4432;50.890;4.744;2023-01-19T03:11:16;8.00;;;5.10;;
8791;SDS011;4432;50.890;4.744;2023-01-19T03:16:50;11.97;;;5.90;;
8791;SDS011;4432;50.890;4.744;2023-01-19T03:19:22;14.67;;;7.53;;
8791;SDS011;4432;50.890;4.744;2023-01-19T03:21:55;15.20;;;6.33;;
8791;SDS011;4432;50.890;4.744;2023-01-19T03:24:23;11.93;;;6.07;;
8791;SDS011;4432;50.890;4.744;2023-01-19T03:26:52;10.93;;;6.27;;
8791;SDS011;4432;50.890;4.744;2023-01-19T03:29:23;10.57;;;6.40;;
8791;SDS011;4432;50.890;4.744;2023-01-19T03:31:54;12.50;;;6.80;;
8791;SDS011;4432;50.890;4.744;2023-01-19T03:34:23;10.10;;;6.30;;
8791;SDS011;4432;50.890;4.744;2023-01-19T03:36:51;11.10;;;5.97;;
8791;SDS011;4432;50.890;4.744;2023-01-19T03:39:23;12.47;;;7.40;;
8791;SDS011;4432;50.890;4.744;2023-01-19T03:41:57;9.63;;;5.30;;
8791;SDS011;4432;50.890;4.744;2023-01-19T03:44:27;18.77;;;6.63;;
8791;SDS011;4432;50.890;4.744;2023-01-19T03:46:55;10.57;;;6.73;;
8791;SDS011;4432;50.890;4.744;2023-01-19T03:49:23;14.00;;;6.50;;
8791;SDS011;4432;50.890;4.744;2023-01-19T03:51:49;10.10;;;6.37;;
8791;SDS011;4432;50.890;4.744;2023-01-19T03:54:15;10.00;;;6.23;;
8791;SDS011;4432;50.890;4.744;2023-01-19T03:56:41;14.37;;;6.67;;
8791;SDS011;4432;50.890;4.744;2023-01-19T03:59:08;14.43;;;7.23;;
8791;SDS011;4432;50.890;4.744;2023-01-19T04:01:34;10.43;;;5.37;;
8791;SDS011;4432;50.890;4.744;2023-01-19T04:04:00;13.23;;;6.40;;
8791;SDS011;4432;50.890;4.744;2023-01-19T04:06:26;13.07;;;6.63;;
8791;SDS011;4432;50.890;4.744;2023-01-19T04:08:52;11.40;;;6.07;;
8791;SDS011;4432;50.890;4.744;2023-01-19T04:11:18;13.23;;;5.40;;
8791;SDS011;4432;50.890;4.744;2023-01-19T04:13:44;12.03;;;6.33;;
8791;SDS011;4432;50.890;4.744;2023-01-19T04:16:10;13.00;;;6.50;;
8791;SDS011;4432;50.890;4.744;2023-01-19T04:18:36;10.90;;;6.10;;
8791;SDS011;4432;50.890;4.744;2023-01-19T04:21:03;10.27;;;6.63;;
8791;SDS011;4432;50.890;4.744;2023-01-19T04:23:31;10.47;;;6.63;;
8791;SDS011;4432;50.890;4.744;2023-01-19T04:25:58;10.87;;;6.60;;
8791;SDS011;4432;50.890;4.744;2023-01-19T04:28:25;8.07;;;5.50;;
8791;SDS011;4432;50.890;4.744;2023-01-19T04:30:51;10.93;;;6.37;;
8791;SDS011;4432;50.890;4.744;2023-01-19T04:33:18;12.90;;;6.50;;
8791;SDS011;4432;50.890;4.744;2023-01-19T04:35:46;10.30;;;6.60;;
8791;SDS011;4432;50.890;4.744;2023-01-19T04:38:12;9.97;;;5.93;;
8791;SDS011;4432;50.890;4.744;2023-01-19T04:40:38;12.80;;;7.33;;
8791;SDS011;4432;50.890;4.744;2023-01-19T04:43:04;10.50;;;6.53;;
8791;SDS011;4432;50.890;4.744;2023-01-19T04:45:31;9.50;;;5.43;;
8791;SDS011;4432;50.890;4.744;2023-01-19T04:47:57;10.80;;;7.53;;
8791;SDS011;4432;50.890;4.744;2023-01-19T04:50:22;10.37;;;7.50;;
8791;SDS011;4432;50.890;4.744;2023-01-19T04:52:49;17.07;;;6.40;;
8791;SDS011;4432;50.890;4.744;2023-01-19T04:55:15;11.30;;;6.70;;
8791;SDS011;4432;50.890;4.744;2023-01-19T04:57:41;17.10;;;7.43;;
8791;SDS011;4432;50.890;4.744;2023-01-19T05:00:07;14.30;;;6.57;;
8791;SDS011;4432;50.890;4.744;2023-01-19T05:02:34;9.80;;;5.97;;
8791;SDS011;4432;50.890;4.744;2023-01-19T05:05:01;13.20;;;6.90;;
8791;SDS011;4432;50.890;4.744;2023-01-19T05:07:27;9.50;;;5.97;;
8791;SDS011;4432;50.890;4.744;2023-01-19T05:09:53;13.07;;;6.67;;
8791;SDS011;4432;50.890;4.744;2023-01-19T05:12:19;14.90;;;6.87;;
8791;SDS011;4432;50.890;4.744;2023-01-19T05:14:45;11.20;;;6.33;;
8791;SDS011;4432;50.890;4.744;2023-01-19T05:17:11;13.97;;;6.33;;
8791;SDS011;4432;50.890;4.744;2023-01-19T05:19:37;15.17;;;8.27;;
8791;SDS011;4432;50.890;4.744;2023-01-19T05:22:03;13.80;;;7.33;;
8791;SDS011;4432;50.890;4.744;2023-01-19T05:24:30;12.37;;;6.47;;
8791;SDS011;4432;50.890;4.744;2023-01-19T05:26:56;13.73;;;7.07;;
8791;SDS011;4432;50.890;4.744;2023-01-19T05:29:22;12.90;;;6.90;;
8791;SDS011;4432;50.890;4.744;2023-01-19T05:31:48;15.07;;;6.30;;
8791;SDS011;4432;50.890;4.744;2023-01-19T05:34:14;11.03;;;6.07;;
8791;SDS011;4432;50.890;4.744;2023-01-19T05:36:40;14.43;;;7.07;;
8791;SDS011;4432;50.890;4.744;2023-01-19T05:39:06;13.47;;;7.37;;
8791;SDS011;4432;50.890;4.744;2023-01-19T05:41:32;10.87;;;6.47;;
8791;SDS011;4432;50.890;4.744;2023-01-19T05:43:58;14.80;;;8.03;;
8791;SDS011;4432;50.890;4.744;2023-01-19T05:46:24;13.30;;;8.23;;
8791;SDS011;4432;50.890;4.744;2023-01-19T05:48:51;15.40;;;8.13;;
8791;SDS011;4432;50.890;4.744;2023-01-19T05:51:16;14.30;;;7.37;;
8791;SDS011;4432;50.890;4.744;2023-01-19T05:53:42;13.87;;;7.57;;
8791;SDS011;4432;50.890;4.744;2023-01-19T05:56:08;12.57;;;7.23;;
8791;SDS011;4432;50.890;4.744;2023-01-19T05:58:35;12.13;;;6.87;;
8791;SDS011;4432;50.890;4.744;2023-01-19T06:01:06;19.17;;;7.13;;
8791;SDS011;4432;50.890;4.744;2023-01-19T06:03:35;16.60;;;7.43;;
8791;SDS011;4432;50.890;4.744;2023-01-19T06:06:03;16.50;;;8.00;;
8791;SDS011;4432;50.890;4.744;2023-01-19T06:08:29;16.87;;;8.60;;
8791;SDS011;4432;50.890;4.744;2023-01-19T06:10:55;15.07;;;8.23;;
8791;SDS011;4432;50.890;4.744;2023-01-19T06:13:21;19.87;;;8.63;;
8791;SDS011;4432;50.890;4.744;2023-01-19T06:15:47;17.83;;;7.53;;
8791;SDS011;4432;50.890;4.744;2023-01-19T06:18:13;16.00;;;7.73;;
8791;SDS011;4432;50.890;4.744;2023-01-19T06:20:39;16.13;;;6.97;;
8791;SDS011;4432;50.890;4.744;2023-01-19T06:23:05;16.00;;;7.37;;
8791;SDS011;4432;50.890;4.744;2023-01-19T06:25:31;11.13;;;7.70;;
8791;SDS011;4432;50.890;4.744;2023-01-19T06:27:56;10.50;;;7.53;;
8791;SDS011;4432;50.890;4.744;2023-01-19T06:30:22;20.87;;;8.90;;
8791;SDS011;4432;50.890;4.744;2023-01-19T06:32:48;15.13;;;8.53;;
8791;SDS011;4432;50.890;4.744;2023-01-19T06:35:14;21.80;;;9.10;;
8791;SDS011;4432;50.890;4.744;2023-01-19T06:37:40;20.17;;;7.20;;
8791;SDS011;4432;50.890;4.744;2023-01-19T06:40:06;18.63;;;7.47;;
8791;SDS011;4432;50.890;4.744;2023-01-19T06:42:32;16.43;;;8.27;;
8791;SDS011;4432;50.890;4.744;2023-01-19T06:44:58;25.43;;;8.27;;
8791;SDS011;4432;50.890;4.744;2023-01-19T06:47:24;13.30;;;7.37;;
8791;SDS011;4432;50.890;4.744;2023-01-19T06:49:50;15.57;;;8.30;;
8791;SDS011;4432;50.890;4.744;2023-01-19T06:52:15;15.10;;;8.40;;
8791;SDS011;4432;50.890;4.744;2023-01-19T06:54:45;16.80;;;8.37;;
8791;SDS011;4432;50.890;4.744;2023-01-19T06:57:11;13.73;;;7.03;;
8791;SDS011;4432;50.890;4.744;2023-01-19T06:59:38;17.60;;;8.33;;
8791;SDS011;4432;50.890;4.744;2023-01-19T07:02:04;14.53;;;7.97;;
8791;SDS011;4432;50.890;4.744;2023-01-19T07:04:30;18.83;;;7.50;;
8791;SDS011;4432;50.890;4.744;2023-01-19T07:06:56;19.43;;;9.03;;
8791;SDS011;4432;50.890;4.744;2023-01-19T07:09:22;16.23;;;9.07;;
8791;SDS011;4432;50.890;4.744;2023-01-19T07:11:49;14.57;;;7.20;;
8791;SDS011;4432;50.890;4.744;2023-01-19T07:14:15;17.07;;;8.43;;
8791;SDS011;4432;50.890;4.744;2023-01-19T07:16:41;14.57;;;8.27;;
8791;SDS011;4432;50.890;4.744;2023-01-19T07:19:07;16.23;;;8.37;;
8791;SDS011;4432;50.890;4.744;2023-01-19T07:21:34;18.80;;;9.10;;
8791;SDS011;4432;50.890;4.744;2023-01-19T07:24:00;20.50;;;9.73;;
8791;SDS011;4432;50.890;4.744;2023-01-19T07:26:26;16.30;;;8.43;;
8791;SDS011;4432;50.890;4.744;2023-01-19T07:28:52;17.73;;;7.80;;
8791;SDS011;4432;50.890;4.744;2023-01-19T07:31:18;15.33;;;7.27;;
8791;SDS011;4432;50.890;4.744;2023-01-19T07:33:44;19.00;;;7.77;;
8791;SDS011;4432;50.890;4.744;2023-01-19T07:36:11;12.37;;;7.80;;
8791;SDS011;4432;50.890;4.744;2023-01-19T07:38:37;17.67;;;7.53;;
8791;SDS011;4432;50.890;4.744;2023-01-19T07:41:04;14.67;;;8.53;;
8791;SDS011;4432;50.890;4.744;2023-01-19T07:43:31;19.13;;;8.30;;
8791;SDS011;4432;50.890;4.744;2023-01-19T07:45:58;11.13;;;7.70;;
8791;SDS011;4432;50.890;4.744;2023-01-19T07:48:26;14.27;;;7.47;;
8791;SDS011;4432;50.890;4.744;2023-01-19T07:50:52;13.77;;;8.50;;
8791;SDS011;4432;50.890;4.744;2023-01-19T07:53:18;12.43;;;8.57;;
8791;SDS011;4432;50.890;4.744;2023-01-19T07:55:44;15.43;;;8.27;;
8791;SDS011;4432;50.890;4.744;2023-01-19T07:58:10;12.30;;;7.47;;
8791;SDS011;4432;50.890;4.744;2023-01-19T08:00:36;14.23;;;7.70;;
8791;SDS011;4432;50.890;4.744;2023-01-19T08:03:03;19.37;;;9.07;;
8791;SDS011;4432;50.890;4.744;2023-01-19T08:05:30;22.67;;;9.60;;
8791;SDS011;4432;50.890;4.744;2023-01-19T08:07:57;22.03;;;8.63;;
8791;SDS011;4432;50.890;4.744;2023-01-19T08:10:24;12.77;;;7.63;;
8791;SDS011;4432;50.890;4.744;2023-01-19T08:12:51;17.63;;;8.27;;
8791;SDS011;4432;50.890;4.744;2023-01-19T08:15:21;15.83;;;8.43;;
8791;SDS011;4432;50.890;4.744;2023-01-19T08:17:58;17.40;;;7.97;;
8791;SDS011;4432;50.890;4.744;2023-01-19T08:20:26;17.13;;;7.50;;
8791;SDS011;4432;50.890;4.744;2023-01-19T08:22:53;14.90;;;8.47;;
8791;SDS011;4432;50.890;4.744;2023-01-19T08:25:42;20.40;;;9.77;;
8791;SDS011;4432;50.890;4.744;2023-01-19T08:28:09;14.60;;;8.80;;
8791;SDS011;4432;50.890;4.744;2023-01-19T08:30:37;19.30;;;10.17;;
8791;SDS011;4432;50.890;4.744;2023-01-19T08:33:04;18.47;;;7.67;;
8791;SDS011;4432;50.890;4.744;2023-01-19T08:35:33;18.07;;;8.10;;
8791;SDS011;4432;50.890;4.744;2023-01-19T08:38:01;16.03;;;8.43;;
8791;SDS011;4432;50.890;4.744;2023-01-19T08:40:27;17.10;;;9.10;;
8791;SDS011;4432;50.890;4.744;2023-01-19T08:43:08;19.63;;;8.77;;
8791;SDS011;4432;50.890;4.744;2023-01-19T08:45:37;20.53;;;9.07;;
8791;SDS011;4432;50.890;4.744;2023-01-19T08:48:12;22.23;;;9.77;;
8791;SDS011;4432;50.890;4.744;2023-01-19T08:50:39;18.43;;;7.57;;
8791;SDS011;4432;50.890;4.744;2023-01-19T08:53:05;13.80;;;8.23;;
8791;SDS011;4432;50.890;4.744;2023-01-19T08:55:32;19.73;;;8.47;;
8791;SDS011;4432;50.890;4.744;2023-01-19T08:58:00;13.90;;;7.63;;
8791;SDS011;4432;50.890;4.744;2023-01-19T09:00:28;28.67;;;8.93;;
8791;SDS011;4432;50.890;4.744;2023-01-19T09:02:56;17.10;;;7.90;;
8791;SDS011;4432;50.890;4.744;2023-01-19T09:05:22;19.07;;;9.30;;
8791;SDS011;4432;50.890;4.744;2023-01-19T09:07:48;14.30;;;7.93;;
8791;SDS011;4432;50.890;4.744;2023-01-19T09:10:16;13.50;;;7.70;;
8791;SDS011;4432;50.890;4.744;2023-01-19T09:12:43;15.17;;;7.97;;
8791;SDS011;4432;50.890;4.744;2023-01-19T09:15:10;22.40;;;8.03;;
8791;SDS011;4432;50.890;4.744;2023-01-19T09:17:38;23.50;;;8.77;;
8791;SDS011;4432;50.890;4.744;2023-01-19T09:20:06;19.73;;;6.90;;
8791;SDS011;4432;50.890;4.744;2023-01-19T09:22:33;14.33;;;7.93;;
8791;SDS011;4432;50.890;4.744;2023-01-19T09:24:58;15.03;;;7.70;;
8791;SDS011;4432;50.890;4.744;2023-01-19T09:27:24;14.93;;;7.77;;
8791;SDS011;4432;50.890;4.744;2023-01-19T09:29:50;15.70;;;6.43;;
8791;SDS011;4432;50.890;4.744;2023-01-19T09:32:19;14.47;;;7.33;;
8791;SDS011;4432;50.890;4.744;2023-01-19T09:34:45;24.07;;;7.43;;
8791;SDS011;4432;50.890;4.744;2023-01-19T09:37:12;14.50;;;7.37;;
8791;SDS011;4432;50.890;4.744;2023-01-19T09:39:39;19.73;;;8.53;;
8791;SDS011;4432;50.890;4.744;2023-01-19T09:42:14;18.83;;;7.73;;
8791;SDS011;4432;50.890;4.744;2023-01-19T09:44:48;12.43;;;7.10;;
8791;SDS011;4432;50.890;4.744;2023-01-19T09:47:18;15.83;;;7.63;;
8791;SDS011;4432;50.890;4.744;2023-01-19T09:49:51;16.20;;;7.37;;
8791;SDS011;4432;50.890;4.744;2023-01-19T09:52:23;13.47;;;7.30;;
8791;SDS011;4432;50.890;4.744;2023-01-19T09:54:55;18.90;;;9.00;;
8791;SDS011;4432;50.890;4.744;2023-01-19T09:57:22;14.57;;;7.40;;
8791;SDS011;4432;50.890;4.744;2023-01-19T09:59:49;15.80;;;8.67;;
8791;SDS011;4432;50.890;4.744;2023-01-19T10:05:04;13.93;;;7.40;;
8791;SDS011;4432;50.890;4.744;2023-01-19T10:10:56;24.13;;;7.63;;
8791;SDS011;4432;50.890;4.744;2023-01-19T10:18:59;13.47;;;7.03;;
8791;SDS011;4432;50.890;4.744;2023-01-19T10:21:46;20.73;;;6.67;;
8791;SDS011;4432;50.890;4.744;2023-01-19T10:24:28;13.33;;;7.10;;
8791;SDS011;4432;50.890;4.744;2023-01-19T10:26:59;13.33;;;6.70;;
8791;SDS011;4432;50.890;4.744;2023-01-19T10:29:33;15.27;;;7.40;;
8791;SDS011;4432;50.890;4.744;2023-01-19T10:34:41;20.60;;;6.57;;
8791;SDS011;4432;50.890;4.744;2023-01-19T10:37:50;17.07;;;7.00;;
8791;SDS011;4432;50.890;4.744;2023-01-19T10:42:33;13.10;;;6.63;;
8791;SDS011;4432;50.890;4.744;2023-01-19T10:44:59;20.57;;;6.90;;
8791;SDS011;4432;50.890;4.744;2023-01-19T10:47:34;10.50;;;5.87;;
8791;SDS011;4432;50.890;4.744;2023-01-19T10:52:56;15.27;;;5.53;;
8791;SDS011;4432;50.890;4.744;2023-01-19T10:57:57;10.77;;;6.10;;
8791;SDS011;4432;50.890;4.744;2023-01-19T11:00:32;9.50;;;5.70;;
8791;SDS011;4432;50.890;4.744;2023-01-19T11:03:20;12.30;;;5.47;;
8791;SDS011;4432;50.890;4.744;2023-01-19T11:05:57;12.57;;;5.67;;
8791;SDS011;4432;50.890;4.744;2023-01-19T11:08:39;10.97;;;6.13;;
8791;SDS011;4432;50.890;4.744;2023-01-19T11:11:06;9.73;;;5.97;;
8791;SDS011;4432;50.890;4.744;2023-01-19T11:13:34;21.13;;;7.50;;
8791;SDS011;4432;50.890;4.744;2023-01-19T11:18:30;9.43;;;5.70;;
8791;SDS011;4432;50.890;4.744;2023-01-19T11:23:35;13.90;;;5.97;;
8791;SDS011;4432;50.890;4.744;2023-01-19T11:26:23;9.73;;;5.67;;
8791;SDS011;4432;50.890;4.744;2023-01-19T11:28:55;14.33;;;7.40;;
8791;SDS011;4432;50.890;4.744;2023-01-19T11:33:52;14.27;;;6.20;;
8791;SDS011;4432;50.890;4.744;2023-01-19T11:36:27;11.90;;;5.93;;
8791;SDS011;4432;50.890;4.744;2023-01-19T11:38:56;15.73;;;6.83;;
8791;SDS011;4432;50.890;4.744;2023-01-19T11:41:30;11.80;;;6.03;;
8791;SDS011;4432;50.890;4.744;2023-01-19T11:44:10;12.83;;;6.53;;
8791;SDS011;4432;50.890;4.744;2023-01-19T11:46:46;11.90;;;6.43;;
8791;SDS011;4432;50.890;4.744;2023-01-19T11:49:21;12.43;;;6.67;;
8791;SDS011;4432;50.890;4.744;2023-01-19T11:57:55;12.23;;;6.63;;
8791;SDS011;4432;50.890;4.744;2023-01-19T12:00:22;14.80;;;6.87;;
8791;SDS011;4432;50.890;4.744;2023-01-19T12:05:49;8.63;;;5.27;;
8791;SDS011;4432;50.890;4.744;2023-01-19T12:08:22;10.37;;;5.43;;
8791;SDS011;4432;50.890;4.744;2023-01-19T12:10:56;11.07;;;5.70;;
8791;SDS011;4432;50.890;4.744;2023-01-19T12:13:25;11.93;;;5.80;;
8791;SDS011;4432;50.890;4.744;2023-01-19T12:15:56;10.57;;;6.03;;
8791;SDS011;4432;50.890;4.744;2023-01-19T12:19:14;16.17;;;6.50;;
8791;SDS011;4432;50.890;4.744;2023-01-19T12:21:27;10.63;;;6.23;;
8791;SDS011;4432;50.890;4.744;2023-01-19T12:26:35;11.17;;;6.33;;
8791;SDS011;4432;50.890;4.744;2023-01-19T12:29:12;15.73;;;5.37;;
8791;SDS011;4432;50.890;4.744;2023-01-19T12:31:42;14.63;;;7.00;;
8791;SDS011;4432;50.890;4.744;2023-01-19T12:36:50;9.60;;;5.33;;
8791;SDS011;4432;50.890;4.744;2023-01-19T12:39:19;12.53;;;5.90;;
8791;SDS011;4432;50.890;4.744;2023-01-19T12:41:46;22.90;;;6.53;;
8791;SDS011;4432;50.890;4.744;2023-01-19T12:46:56;13.30;;;6.37;;
8791;SDS011;4432;50.890;4.744;2023-01-19T12:49:31;12.90;;;6.23;;
8791;SDS011;4432;50.890;4.744;2023-01-19T12:57:49;16.77;;;6.30;;
8791;SDS011;4432;50.890;4.744;2023-01-19T13:02:45;13.67;;;6.43;;
8791;SDS011;4432;50.890;4.744;2023-01-19T13:13:39;12.03;;;5.13;;
8791;SDS011;4432;50.890;4.744;2023-01-19T13:21:12;10.40;;;5.27;;
8791;SDS011;4432;50.890;4.744;2023-01-19T13:24:03;10.50;;;5.17;;
8791;SDS011;4432;50.890;4.744;2023-01-19T13:26:35;9.63;;;5.40;;
8791;SDS011;4432;50.890;4.744;2023-01-19T13:29:07;10.50;;;5.47;;
8791;SDS011;4432;50.890;4.744;2023-01-19T13:31:49;12.20;;;5.53;;
8791;SDS011;4432;50.890;4.744;2023-01-19T13:34:20;7.87;;;5.23;;
8791;SDS011;4432;50.890;4.744;2023-01-19T13:36:50;11.10;;;5.47;;
8791;SDS011;4432;50.890;4.744;2023-01-19T13:39:27;11.83;;;6.23;;
8791;SDS011;4432;50.890;4.744;2023-01-19T13:42:05;9.67;;;5.07;;
8791;SDS011;4432;50.890;4.744;2023-01-19T13:44:41;10.43;;;5.83;;
8791;SDS011;4432;50.890;4.744;2023-01-19T13:47:24;7.90;;;5.23;;
8791;SDS011;4432;50.890;4.744;2023-01-19T13:50:03;11.83;;;5.50;;
8791;SDS011;4432;50.890;4.744;2023-01-19T13:52:29;8.90;;;5.17;;
8791;SDS011;4432;50.890;4.744;2023-01-19T13:54:57;7.83;;;4.50;;
8791;SDS011;4432;50.890;4.744;2023-01-19T13:57:40;11.40;;;4.80;;
8791;SDS011;4432;50.890;4.744;2023-01-19T14:05:53;5.93;;;3.50;;
8791;SDS011;4432;50.890;4.744;2023-01-19T14:08:20;7.47;;;4.40;;
8791;SDS011;4432;50.890;4.744;2023-01-19T14:15:45;8.60;;;4.00;;
8791;SDS011;4432;50.890;4.744;2023-01-19T14:20:38;8.53;;;4.47;;
8791;SDS011;4432;50.890;4.744;2023-01-19T14:23:06;7.83;;;4.40;;
8791;SDS011;4432;50.890;4.744;2023-01-19T14:26:02;11.53;;;4.93;;
8791;SDS011;4432;50.890;4.744;2023-01-19T14:28:33;8.37;;;5.37;;
8791;SDS011;4432;50.890;4.744;2023-01-19T14:31:24;11.80;;;4.33;;
8791;SDS011;4432;50.890;4.744;2023-01-19T14:33:52;11.53;;;5.27;;
8791;SDS011;4432;50.890;4.744;2023-01-19T14:38:58;12.40;;;4.87;;
8791;SDS011;4432;50.890;4.744;2023-01-19T14:41:36;10.43;;;5.07;;
8791;SDS011;4432;50.890;4.744;2023-01-19T14:44:08;9.63;;;4.77;;
8791;SDS011;4432;50.890;4.744;2023-01-19T14:46:35;6.90;;;4.37;;
8791;SDS011;4432;50.890;4.744;2023-01-19T14:49:03;9.37;;;4.33;;
8791;SDS011;4432;50.890;4.744;2023-01-19T14:51:30;11.63;;;4.97;;
8791;SDS011;4432;50.890;4.744;2023-01-19T14:53:57;9.03;;;5.40;;
8791;SDS011;4432;50.890;4.744;2023-01-19T14:56:26;9.80;;;4.73;;
8791;SDS011;4432;50.890;4.744;2023-01-19T14:58:57;10.10;;;5.30;;
8791;SDS011;4432;50.890;4.744;2023-01-19T15:01:25;8.17;;;4.77;;
8791;SDS011;4432;50.890;4.744;2023-01-19T15:03:56;9.27;;;5.07;;
8791;SDS011;4432;50.890;4.744;2023-01-19T15:06:22;11.53;;;5.23;;
8791;SDS011;4432;50.890;4.744;2023-01-19T15:08:49;10.50;;;4.90;;
8791;SDS011;4432;50.890;4.744;2023-01-19T15:13:57;9.53;;;5.53;;
8791;SDS011;4432;50.890;4.744;2023-01-19T15:16:23;15.83;;;6.13;;
8791;SDS011;4432;50.890;4.744;2023-01-19T15:18:50;11.33;;;4.93;;
8791;SDS011;4432;50.890;4.744;2023-01-19T15:21:17;10.07;;;5.57;;
8791;SDS011;4432;50.890;4.744;2023-01-19T15:23:44;8.93;;;4.60;;
8791;SDS011;4432;50.890;4.744;2023-01-19T15:26:15;10.23;;;5.20;;
8791;SDS011;4432;50.890;4.744;2023-01-19T15:28:43;11.47;;;5.23;;
8791;SDS011;4432;50.890;4.744;2023-01-19T15:31:15;14.30;;;4.97;;
8791;SDS011;4432;50.890;4.744;2023-01-19T15:33:42;7.90;;;5.13;;
8791;SDS011;4432;50.890;4.744;2023-01-19T15:36:10;10.73;;;5.00;;
8791;SDS011;4432;50.890;4.744;2023-01-19T15:38:38;11.47;;;5.77;;
8791;SDS011;4432;50.890;4.744;2023-01-19T15:41:13;16.23;;;5.20;;
8791;SDS011;4432;50.890;4.744;2023-01-19T15:43:54;12.47;;;5.43;;
8791;SDS011;4432;50.890;4.744;2023-01-19T15:46:20;8.43;;;5.63;;
8791;SDS011;4432;50.890;4.744;2023-01-19T15:48:51;11.83;;;6.67;;
8791;SDS011;4432;50.890;4.744;2023-01-19T15:51:18;14.93;;;5.80;;
8791;SDS011;4432;50.890;4.744;2023-01-19T15:53:46;11.40;;;6.20;;
8791;SDS011;4432;50.890;4.744;2023-01-19T15:56:17;18.90;;;6.27;;
8791;SDS011;4432;50.890;4.744;2023-01-19T15:58:45;9.77;;;5.93;;
8791;SDS011;4432;50.890;4.744;2023-01-19T16:01:12;12.70;;;6.80;;
8791;SDS011;4432;50.890;4.744;2023-01-19T16:03:42;15.03;;;6.60;;
8791;SDS011;4432;50.890;4.744;2023-01-19T16:06:08;13.47;;;6.10;;
8791;SDS011;4432;50.890;4.744;2023-01-19T16:08:34;16.53;;;8.23;;
8791;SDS011;4432;50.890;4.744;2023-01-19T16:11:05;12.37;;;6.40;;
8791;SDS011;4432;50.890;4.744;2023-01-19T16:13:35;12.70;;;7.43;;
8791;SDS011;4432;50.890;4.744;2023-01-19T16:16:11;11.33;;;6.27;;
8791;SDS011;4432;50.890;4.744;2023-01-19T16:18:39;13.17;;;7.10;;
8791;SDS011;4432;50.890;4.744;2023-01-19T16:21:05;11.10;;;5.60;;
8791;SDS011;4432;50.890;4.744;2023-01-19T16:23:31;12.83;;;6.67;;
8791;SDS011;4432;50.890;4.744;2023-01-19T16:26:01;8.07;;;6.07;;
8791;SDS011;4432;50.890;4.744;2023-01-19T16:28:31;9.57;;;6.27;;
8791;SDS011;4432;50.890;4.744;2023-01-19T16:30:58;13.23;;;6.60;;
8791;SDS011;4432;50.890;4.744;2023-01-19T16:33:24;14.67;;;6.53;;
8791;SDS011;4432;50.890;4.744;2023-01-19T16:35:50;10.70;;;6.93;;
8791;SDS011;4432;50.890;4.744;2023-01-19T16:38:16;11.17;;;6.23;;
8791;SDS011;4432;50.890;4.744;2023-01-19T16:40:43;13.90;;;6.93;;
8791;SDS011;4432;50.890;4.744;2023-01-19T16:43:10;16.27;;;6.50;;
8791;SDS011;4432;50.890;4.744;2023-01-19T16:45:39;12.73;;;6.93;;
8791;SDS011;4432;50.890;4.744;2023-01-19T16:48:21;16.27;;;6.20;;
8791;SDS011;4432;50.890;4.744;2023-01-19T16:51:00;12.43;;;6.60;;
8791;SDS011;4432;50.890;4.744;2023-01-19T16:53:29;14.90;;;7.37;;
8791;SDS011;4432;50.890;4.744;2023-01-19T16:55:56;12.57;;;6.73;;